Terminal Aerodrome Forecast
Issued by NWS

Home | Current Version | Previous Version | Text Only | Print | Product List | Glossary On
Versions: 1 2 3 4 5 6 7 8 9 10 11 12 13 14 15 16 17
725
FTUS44 KBMX 142336
TAFTCL
TAF
KTCL 142336Z 1500/1524 16009KT P6SM BKN060 BKN250
     FM151200 15010KT P6SM BKN050 BKN200
     FM151400 16011G19KT P6SM VCSH BKN020 OVC050
     FM152000 19013G22KT 5SM -RA OVC030=

USA.gov is the U.S. government's official web portal to all federal, state and local government web resources and services.